Flight Track Log - Related Links

Times and Time Zones

All times are in EDT time to prevent confusion due to time zone crossing. See the SKW6306 flight status page for this flight to view local times or setup timezone preferences in your user account.

Time Position Orientation Groundspeed Altitude Reporting Facility
EDT Latitude Longitude Course Direction KTS MPH feet Rate Location/Type
Sat 09:54:09 PM 39.9667 -104.6833 346° North 236 272 8,200  Level Denver TRACON
Sat 09:55:10 PM 40.0394 -104.6592 14° North 286 329 9,400 1,805 Climbing Denver Center
Sat 09:56:12 PM 40.1242 -104.6744 352° North 290 334 11,900 2,244 Climbing Denver Center
Sat 09:57:13 PM 40.2028 -104.6964 348° North 289 333 14,000 1,317 Climbing Denver Center
Sat 09:58:15 PM 40.2936 -104.7203 349° North 333 383 14,600 780 Climbing Denver Center
Sat 09:59:00 PM 40.4703 -104.8678 346° North  Level FlightAware Approximate
Sat 09:59:16 PM 40.3778 -104.7419 349° North 365 420 15,600  Level Denver Center
Sat 10:00:17 PM 40.5044 -104.7764 348° North 377 434 17,000 1,366 Climbing Denver Center
Sat 10:01:19 PM 40.6094 -104.8067 348° North 385 443 18,400 1,268 Climbing Denver Center
Sat 10:02:20 PM 40.7189 -104.8328 350° North 395 455 19,600 1,073 Climbing Denver Center
Sat 10:03:22 PM 40.8047 -104.8919 332° Northwest 381 438 20,600 780 Climbing Denver Center
Sat 10:04:23 PM 40.8917 -104.9783 323° Northwest 393 452 21,200 934 Climbing Denver Center
Sat 10:05:24 PM 40.9983 -105.0875 322° Northwest 403 464 22,500 1,073 Climbing Denver Center
Sat 10:06:26 PM 41.0781 -105.1700 322° Northwest 407 468 23,400 1,122 Climbing Denver Center
Sat 10:07:27 PM 41.1794 -105.2758 322° Northwest 413 475 24,800 1,378 Climbing Denver Center
Sat 10:08:41 PM 41.2939 -105.3969 322° Northwest 414 476 26,500 1,279 Climbing Denver Center
Sat 10:09:43 PM 41.3769 -105.4842 322° Northwest 401 461 27,700 829 Climbing Denver Center
Sat 10:10:44 PM 41.4617 -105.5725 322° Northwest 403 464 28,200 443 Climbing Denver Center
Sat 10:11:45 PM 41.5350 -105.6508 321° Northwest 416 479 28,600 585 Climbing Denver Center
Sat 10:12:47 PM 41.6556 -105.7797 321° Northwest 435 501 29,400 871 Climbing Denver Center
Sat 10:13:49 PM 41.7464 -105.8753 322° Northwest 434 499 30,400 984 Climbing Denver Center
Sat 10:14:49 PM 41.8519 -105.9878 322° Northwest 433 498 31,400 787 Climbing Denver Center
Sat 10:15:51 PM 41.9428 -106.0853 321° Northwest 435 501 32,000 267 Climbing Denver Center
Sat 10:17:04 PM 42.0650 -106.2178 321° Northwest 440 506 32,000  Level Denver Center
Sat 10:18:06 PM 42.1594 -106.3192 322° Northwest 448 516 32,000  Level Denver Center
Sat 10:19:07 PM 42.2708 -106.4431 321° Northwest 458 527 32,000  Level Denver Center
Sat 10:20:09 PM 42.3678 -106.5464 322° Northwest 461 531 32,000  Level Denver Center
Sat 10:21:10 PM 42.4622 -106.6492 321° Northwest 456 525 32,000 49 Level Denver Center
Sat 10:22:11 PM 42.5714 -106.7689 321° Northwest 451 519 32,100  Climbing Denver Center
Sat 10:23:13 PM 42.6639 -106.8714 321° Northwest 448 516 32,000 -49 Descending Denver Center
Sat 10:24:14 PM 42.7731 -106.9939 321° Northwest 453 521 32,000 49 Level Denver Center
Sat 10:25:16 PM 42.8658 -107.0972 321° Northwest 452 520 32,100  Climbing Denver Center
Sat 10:26:17 PM 42.9589 -107.2019 321° Northwest 453 521 32,000  Descending Denver Center
Sat 10:27:18 PM 43.0678 -107.3253 320° Northwest 454 522 32,100  Climbing Denver Center
Sat 10:28:20 PM 43.1722 -107.4442 320° Northwest 454 522 32,000 -49 Descending Denver Center
Sat 10:29:21 PM 43.2653 -107.5497 320° Northwest 454 522 32,000  Level Denver Center
Sat 10:30:23 PM 43.3578 -107.6544 321° Northwest 452 520 32,000  Level Denver Center
Sat 10:31:24 PM 43.4653 -107.7783 320° Northwest 452 520 32,000 -98 Level Denver Center
Sat 10:32:25 PM 43.5431 -107.8658 321° Northwest 453 521 31,800 -2,040 Descending Denver Center
Sat 10:33:54 PM 43.7294 -107.9783 336° Northwest 459 528 26,900 -3,280 Descending Salt Lake Center
Sat 10:34:55 PM 43.8578 -108.0417 340° North 443 510 23,600 -3,024 Descending Salt Lake Center
Sat 10:35:57 PM 43.9717 -108.1022 339° North 453 521 20,700 -2,341 Descending Salt Lake Center
Sat 10:36:58 PM 44.1000 -108.1678 340° North 446 513 18,800 -1,869 Descending Salt Lake Center
Sat 10:38:00 PM 44.1622 -108.2929 305° West  Level Estimated
Sat 10:45:00 PM 44.5167 -109.0167 325° Northwest  Level FlightAware Approximate
Sat 10:46:00 PM 44.5202 -109.0238 325° Northwest  Level Estimated
Sat 10:47:00 PM 44.5167 -109.0167 325° Northwest  Level FlightAware Approximate
Sat 10:48:00 PM 44.5202 -109.0238 325° Northwest  Level Estimated
Sat 10:49:00 PM 44.5167 -109.0167 325° Northwest  Level FlightAware Approximate
Sat 10:50:00 PM 44.5202 -109.0238 325° Northwest  Level Estimated
Sat 10:51:00 PM 44.5167 -109.0167 325° Northwest  Level FlightAware Approximate
Sat 10:52:00 PM 44.5202 -109.0238 325° Northwest  Level Estimated
Sat 10:53:00 PM 44.5167 -109.0167 325° Northwest  Level FlightAware Approximate
Sat 10:54:00 PM 44.5202 -109.0238 325° Northwest  Level Estimated
Sat 10:55:00 PM 44.5167 -109.0167 325° Northwest  Level FlightAware Approximate
Sat 10:56:00 PM 44.5202 -109.0238 325° Northwest  Level Estimated

Login

Don't have an account? Register now (free) for customized features, flight alerts, and more!